Time;durP1;ratioP1;P1;durP2;ratioP2;P2;SDS_P1;SDS_P2;PMS_P1;PMS_P2;Temp;Humidity;BMP_temperature;BMP_pressure;BME280_temperature;BME280_humidity;BME280_pressure;Samples;Min_cycle;Max_cycle;Signal;HPM_P1;HPM_P2
2021/12/22 00:00:23;;;;;;;0.53;0.53;;;;;;;-3.28;88.42;102791.59;5054054;28;20028;-70
2021/12/22 00:02:50;;;;;;;0.50;0.50;;;;;;;-3.29;88.34;102787.19;5056417;28;20074;-70
2021/12/22 00:05:27;;;;;;;0.50;0.50;;;;;;;-3.31;88.25;102786.06;5056056;28;20147;-71
2021/12/22 00:07:53;;;;;;;0.50;0.50;;;;;;;-3.33;88.18;102790.13;5040791;28;20666;-70
2021/12/22 00:10:19;;;;;;;0.60;0.60;;;;;;;-3.36;88.35;102780.44;5035602;28;20330;-70
2021/12/22 00:12:46;;;;;;;0.60;0.60;;;;;;;-3.36;88.18;102776.97;5044615;28;20045;-70
2021/12/22 00:15:11;;;;;;;0.50;0.50;;;;;;;-3.35;88.53;102771.09;5056188;28;20285;-70
2021/12/22 00:17:37;;;;;;;0.70;0.70;;;;;;;-3.39;88.35;102771.47;5049506;28;20279;-70
2021/12/22 00:20:04;;;;;;;0.60;0.60;;;;;;;-3.40;88.44;102768.00;5036019;28;20376;-70
2021/12/22 00:22:30;;;;;;;0.40;0.40;;;;;;;-3.38;88.48;102757.91;5035908;28;20038;-70
2021/12/22 00:24:55;;;;;;;0.60;0.60;;;;;;;-3.40;88.45;102757.75;5036629;28;20343;-70
2021/12/22 00:27:21;;;;;;;0.90;0.90;;;;;;;-3.41;88.02;102758.50;5051655;28;20295;-70
2021/12/22 00:29:49;;;;;;;0.60;0.60;;;;;;;-3.43;88.50;102756.50;5036154;28;20021;-70
2021/12/22 00:32:16;;;;;;;0.60;0.60;;;;;;;-3.45;88.54;102757.22;5038988;28;20080;-70
2021/12/22 00:34:48;;;;;;;0.40;0.40;;;;;;;-3.45;88.45;102759.78;5039645;28;20278;-70
2021/12/22 00:37:15;;;;;;;0.57;0.57;;;;;;;-3.46;88.56;102757.03;5040569;28;20658;-69
2021/12/22 00:39:41;;;;;;;0.50;0.50;;;;;;;-3.46;88.50;102763.09;5046915;28;20291;-69
2021/12/22 00:42:07;;;;;;;0.40;0.40;;;;;;;-3.47;88.58;102766.38;5060162;28;20283;-70
2021/12/22 00:44:32;;;;;;;0.60;0.60;;;;;;;-3.47;88.47;102766.38;5059234;28;20071;-71
2021/12/22 00:46:58;;;;;;;0.40;0.40;;;;;;;-3.48;88.43;102763.66;5059845;28;20298;-70
2021/12/22 00:49:23;;;;;;;1.03;1.03;;;;;;;-3.50;88.47;102759.97;5058471;28;20024;-70
2021/12/22 00:51:48;;;;;;;0.50;0.50;;;;;;;-3.51;88.43;102759.06;5040127;28;20108;-69
2021/12/22 00:54:14;;;;;;;0.50;0.50;;;;;;;-3.51;88.50;102765.84;5052957;28;20110;-70
2021/12/22 00:56:39;;;;;;;0.50;0.50;;;;;;;-3.53;88.28;102768.25;5058725;28;20031;-70
2021/12/22 00:59:05;;;;;;;0.63;0.63;;;;;;;-3.55;88.13;102776.47;5059676;28;20124;-69
2021/12/22 01:01:30;;;;;;;0.50;0.50;;;;;;;-3.57;88.21;102771.16;5054663;28;20064;-70
2021/12/22 01:03:56;;;;;;;0.50;0.50;;;;;;;-3.59;88.28;102777.75;5059765;28;20021;-69
2021/12/22 01:06:22;;;;;;;0.50;0.50;;;;;;;-3.61;88.38;102781.81;5057408;28;20035;-69
2021/12/22 01:08:48;;;;;;;1.63;1.63;;;;;;;-3.62;88.08;102788.56;5043656;28;20291;-69
2021/12/22 01:11:13;;;;;;;0.30;0.30;;;;;;;-3.63;88.38;102778.13;5039996;28;20292;-69
2021/12/22 01:13:39;;;;;;;0.57;0.57;;;;;;;-3.64;88.55;102787.47;5043406;28;20025;-69
2021/12/22 01:16:04;;;;;;;0.70;0.70;;;;;;;-3.65;88.30;102782.16;5039905;28;20052;-69
2021/12/22 01:18:32;;;;;;;0.60;0.60;;;;;;;-3.67;88.22;102789.66;5039538;28;20068;-70
2021/12/22 01:21:09;;;;;;;0.50;0.50;;;;;;;-3.68;88.39;102782.72;5050652;28;20100;-70
2021/12/22 01:23:47;;;;;;;0.57;0.57;;;;;;;-3.69;88.31;102780.88;5044261;28;20299;-70
2021/12/22 01:26:13;;;;;;;0.60;0.60;;;;;;;-3.71;88.51;102779.81;5038795;28;20640;-69
2021/12/22 01:28:42;;;;;;;0.60;0.60;;;;;;;-3.73;88.31;102786.41;5038239;28;20362;-69
2021/12/22 01:31:13;;;;;;;0.50;0.50;;;;;;;-3.74;88.43;102785.47;5039650;28;20032;-69
2021/12/22 01:33:38;;;;;;;0.90;0.90;;;;;;;-3.77;88.46;102777.44;5045512;28;20355;-69
2021/12/22 01:36:04;;;;;;;0.60;0.60;;;;;;;-3.79;88.32;102781.44;5059244;28;20358;-69
2021/12/22 01:38:30;;;;;;;0.50;0.50;;;;;;;-3.80;88.20;102779.63;5059650;28;20021;-70
2021/12/22 01:40:55;;;;;;;1.03;1.03;;;;;;;-3.80;88.29;102779.63;5059553;28;20287;-69
2021/12/22 01:43:21;;;;;;;5.37;1.63;;;;;;;-3.79;88.20;102772.88;5045954;28;20287;-69
2021/12/22 01:45:57;;;;;;;0.50;0.50;;;;;;;-3.79;88.28;102778.00;5039147;28;20028;-68
2021/12/22 01:51:55;;;;;;;0.47;0.47;;;;;;;-3.85;88.25;102765.41;5038447;28;20115;-70
2021/12/22 01:54:21;;;;;;;0.50;0.50;;;;;;;-3.86;88.21;102759.34;5040388;28;20311;-69
2021/12/22 01:56:51;;;;;;;0.50;0.50;;;;;;;-3.88;88.33;102755.69;5039127;28;20364;-69
2021/12/22 01:59:17;;;;;;;0.47;0.47;;;;;;;-3.89;88.41;102756.44;5038766;28;20306;-69
2021/12/22 02:01:43;;;;;;;0.50;0.50;;;;;;;-3.91;88.14;102760.44;5040612;28;20275;-68
2021/12/22 02:04:10;;;;;;;0.40;0.40;;;;;;;-3.91;88.33;102760.44;5038045;28;20033;-69
2021/12/22 02:06:44;;;;;;;0.68;0.68;;;;;;;-3.93;88.23;102761.03;5038453;28;20128;-69
2021/12/22 02:09:12;;;;;;;0.50;0.50;;;;;;;-3.92;88.57;102761.19;5056359;28;20045;-69
2021/12/22 02:11:37;;;;;;;0.40;0.40;;;;;;;-3.91;88.30;102756.97;5057995;28;20091;-69
2021/12/22 02:14:05;;;;;;;0.50;0.50;;;;;;;-3.92;88.32;102752.59;5039907;28;20295;-69
2021/12/22 02:16:35;;;;;;;0.60;0.60;;;;;;;-3.95;88.38;102750.59;5058733;28;20048;-69
2021/12/22 02:19:03;;;;;;;0.50;0.50;;;;;;;-3.94;88.01;102762.66;5039786;28;20375;-70
2021/12/22 02:21:33;;;;;;;0.40;0.40;;;;;;;-3.94;88.41;102767.78;5037627;28;20634;-69
2021/12/22 02:23:59;;;;;;;0.50;0.50;;;;;;;-3.95;88.24;102772.69;5038384;28;20288;-68
2021/12/22 02:26:34;;;;;;;0.40;0.40;;;;;;;-3.97;88.32;102775.09;5042248;28;20318;-69
2021/12/22 02:29:04;;;;;;;0.40;0.40;;;;;;;-3.97;88.24;102771.63;5049035;28;20279;-70
2021/12/22 02:31:34;;;;;;;0.67;0.67;;;;;;;-3.99;88.00;102779.09;5058246;28;20309;-69
2021/12/22 02:34:01;;;;;;;0.47;0.47;;;;;;;-3.99;88.26;102771.41;5057835;28;20279;-69
2021/12/22 02:36:34;;;;;;;0.47;0.47;;;;;;;-4.00;88.37;102784.97;5058309;28;20672;-70
2021/12/22 02:39:00;;;;;;;0.50;0.50;;;;;;;-3.99;88.25;102779.09;5056864;28;20279;-69
2021/12/22 02:41:28;;;;;;;0.50;0.50;;;;;;;-4.00;88.16;102783.31;5053135;28;20787;-69
2021/12/22 02:43:56;;;;;;;0.40;0.40;;;;;;;-3.98;88.36;102792.81;5043002;28;20311;-69
2021/12/22 02:46:27;;;;;;;0.60;0.60;;;;;;;-3.99;88.37;102786.78;5057922;28;20677;-69
2021/12/22 02:48:53;;;;;;;0.60;0.60;;;;;;;-4.01;88.39;102783.13;5056594;28;20259;-68
2021/12/22 02:51:20;;;;;;;0.60;0.60;;;;;;;-4.03;87.81;102784.59;5041604;28;20361;-69
2021/12/22 02:53:59;;;;;;;0.60;0.60;;;;;;;-4.01;88.33;102790.81;5037876;28;20378;-69
2021/12/22 02:56:32;;;;;;;0.50;0.50;;;;;;;-4.01;87.90;102785.69;5052385;28;20291;-69
2021/12/22 03:04:04;;;;;;;0.50;0.50;;;;;;;-4.05;87.63;102783.53;5057714;28;20271;-69
2021/12/22 03:06:55;;;;;;;0.60;0.60;;;;;;;-4.08;87.93;102781.50;5057632;28;20036;-69
2021/12/22 03:09:22;;;;;;;0.50;0.50;;;;;;;-4.09;87.95;102789.00;5047725;28;20065;-68
2021/12/22 03:11:48;;;;;;;0.50;0.50;;;;;;;-4.12;87.78;102783.53;5038277;28;20084;-69
2021/12/22 03:14:15;;;;;;;0.52;0.52;;;;;;;-4.14;88.14;102781.69;5048944;28;20319;-69
2021/12/22 03:16:44;;;;;;;0.60;0.60;;;;;;;-4.14;88.27;102773.09;5045465;28;20326;-68
2021/12/22 03:19:13;;;;;;;0.63;0.63;;;;;;;-4.16;88.17;102777.13;5046003;28;20021;-68
2021/12/22 03:21:41;;;;;;;0.50;0.50;;;;;;;-4.18;88.29;102770.91;5057310;28;20029;-68
2021/12/22 03:24:07;;;;;;;0.60;0.60;;;;;;;-4.18;88.20;102765.78;5057179;28;20309;-69
2021/12/22 03:26:32;;;;;;;0.53;0.53;;;;;;;-4.18;88.53;102766.69;5056878;28;20275;-68
2021/12/22 03:28:58;;;;;;;0.40;0.40;;;;;;;-4.17;88.43;102765.97;5056883;28;20102;-69
2021/12/22 03:31:23;;;;;;;0.40;0.40;;;;;;;-4.15;88.65;102767.06;5056863;28;20314;-69
2021/12/22 03:33:48;;;;;;;2.30;2.20;;;;;;;-4.15;88.60;102768.72;5040227;28;20352;-68
2021/12/22 03:36:14;;;;;;;0.50;0.50;;;;;;;-4.15;88.53;102766.16;5045014;28;20036;-69
2021/12/22 03:38:40;;;;;;;0.40;0.40;;;;;;;-4.16;88.52;102766.88;5057049;28;20028;-69
2021/12/22 03:41:07;;;;;;;0.37;0.37;;;;;;;-4.18;88.30;102766.69;5056764;28;20025;-69
2021/12/22 03:43:34;;;;;;;0.50;0.50;;;;;;;-4.20;88.53;102764.69;5041542;28;20625;-68
2021/12/22 03:45:59;;;;;;;0.50;0.50;;;;;;;-4.19;88.46;102764.88;5036349;28;20423;-69
2021/12/22 03:48:25;;;;;;;0.63;0.63;;;;;;;-4.19;88.58;102754.63;5029596;28;20091;-69
2021/12/22 03:50:52;;;;;;;0.60;0.60;;;;;;;-4.19;88.75;102757.19;5052671;28;20074;-68
2021/12/22 03:53:17;;;;;;;0.50;0.50;;;;;;;-4.19;88.69;102756.25;5044338;28;20052;-69
2021/12/22 03:55:43;;;;;;;0.50;0.50;;;;;;;-4.19;88.63;102752.06;5036887;28;20376;-68
2021/12/22 03:58:08;;;;;;;0.60;0.60;;;;;;;-4.18;88.93;102745.31;5036151;28;20026;-69
2021/12/22 04:00:36;;;;;;;0.50;0.50;;;;;;;-4.19;88.72;102740.91;5037139;28;20092;-68
2021/12/22 04:03:03;;;;;;;0.50;0.50;;;;;;;-4.21;88.80;102740.75;5039268;28;20079;-68
2021/12/22 04:05:28;;;;;;;0.50;0.50;;;;;;;-4.23;88.24;102736.19;5056137;28;20151;-68
2021/12/22 04:07:55;;;;;;;0.50;0.50;;;;;;;-4.25;88.57;102746.22;5047405;28;20079;-68
2021/12/22 04:10:22;;;;;;;0.50;0.50;;;;;;;-4.24;88.70;102742.03;5040559;28;20074;-69
2021/12/22 04:12:52;;;;;;;0.50;0.50;;;;;;;-4.24;88.72;102742.03;5045367;28;20039;-68
2021/12/22 04:15:18;;;;;;;0.60;0.60;;;;;;;-4.24;89.36;102734.34;5056563;28;20112;-67
2021/12/22 04:17:44;;;;;;;0.50;0.50;;;;;;;-4.26;88.50;102731.59;5048924;28;20304;-69
2021/12/22 04:20:10;;;;;;;0.50;0.50;;;;;;;-4.27;88.26;102729.78;5036553;28;20284;-69
2021/12/22 04:22:36;;;;;;;0.55;0.55;;;;;;;-4.26;88.79;102725.59;5039223;28;20044;-69
2021/12/22 04:25:03;;;;;;;0.47;0.47;;;;;;;-4.26;88.55;102726.50;5055486;28;20064;-68
2021/12/22 04:27:28;;;;;;;0.53;0.53;;;;;;;-4.27;88.62;102727.22;5048942;28;21161;-68
2021/12/22 04:29:53;;;;;;;0.80;0.80;;;;;;;-4.29;88.55;102721.03;5036345;28;20366;-69
2021/12/22 04:32:19;;;;;;;0.60;0.60;;;;;;;-4.29;88.61;102724.47;5040860;28;20087;-68
2021/12/22 04:34:44;;;;;;;0.50;0.50;;;;;;;-4.29;88.54;102721.91;5056117;28;20029;-69
2021/12/22 04:37:09;;;;;;;0.50;0.50;;;;;;;-4.28;88.86;102725.41;5045475;28;20096;-68
2021/12/22 04:39:35;;;;;;;0.50;0.50;;;;;;;-4.28;88.73;102720.28;5036438;28;20125;-69
2021/12/22 04:42:00;;;;;;;0.50;0.50;;;;;;;-4.30;88.94;102719.19;5046628;28;20041;-69
2021/12/22 04:44:25;;;;;;;0.50;0.50;;;;;;;-4.31;88.84;102720.81;5055394;28;20052;-69
2021/12/22 04:46:51;;;;;;;0.60;0.60;;;;;;;-4.32;88.80;102707.84;5056202;28;20025;-68
2021/12/22 04:49:16;;;;;;;0.47;0.47;;;;;;;-4.35;88.92;102698.16;5056108;28;20071;-68
2021/12/22 04:51:49;;;;;;;0.40;0.40;;;;;;;-4.34;88.90;102704.19;5054353;28;20025;-68
2021/12/22 04:54:19;;;;;;;0.50;0.50;;;;;;;-4.37;88.73;102704.75;5056131;28;20025;-68
2021/12/22 04:56:45;;;;;;;0.50;0.50;;;;;;;-4.37;88.78;102706.41;5054661;28;20063;-69
2021/12/22 04:59:11;;;;;;;0.70;0.70;;;;;;;-4.39;88.74;102700.16;5055542;28;20068;-68
2021/12/22 05:01:37;;;;;;;0.50;0.50;;;;;;;-4.42;89.16;102701.66;5049596;28;20371;-68
2021/12/22 05:04:02;;;;;;;0.50;0.50;;;;;;;-4.42;88.72;102695.63;5056234;28;20390;-68
2021/12/22 05:06:27;;;;;;;0.60;0.60;;;;;;;-4.44;88.93;102697.06;5045808;28;20044;-67
2021/12/22 05:08:53;;;;;;;0.50;0.50;;;;;;;-4.46;88.88;102691.78;5037439;28;20032;-67
2021/12/22 05:11:18;;;;;;;0.63;0.63;;;;;;;-4.47;88.88;102689.97;5037123;28;20056;-67
2021/12/22 05:13:44;;;;;;;0.60;0.60;;;;;;;-4.45;88.79;102687.56;5050508;28;20339;-68
2021/12/22 05:16:16;;;;;;;0.50;0.50;;;;;;;-4.43;88.95;102696.34;5038201;28;20123;-68
2021/12/22 05:18:51;;;;;;;0.60;0.60;;;;;;;-4.45;88.88;102687.56;5053069;28;20114;-68
2021/12/22 05:21:20;;;;;;;0.50;0.50;;;;;;;-4.46;88.91;102688.31;5043793;28;20466;-68
2021/12/22 05:23:46;;;;;;;0.40;0.40;;;;;;;-4.47;88.79;102689.97;5058289;28;20271;-68
2021/12/22 05:26:11;;;;;;;0.60;0.60;;;;;;;-4.48;88.92;102692.34;5058485;28;20031;-68
2021/12/22 05:28:37;;;;;;;0.57;0.57;;;;;;;-4.48;88.93;102690.69;5045531;28;20108;-68
2021/12/22 05:31:02;;;;;;;0.50;0.50;;;;;;;-4.48;89.04;102688.13;5038650;28;20083;-68
2021/12/22 05:33:28;;;;;;;0.67;0.67;;;;;;;-4.49;88.75;102693.97;5042773;28;20069;-68
2021/12/22 05:35:53;;;;;;;0.50;0.50;;;;;;;-4.50;88.90;102696.38;5038689;28;20033;-68
2021/12/22 05:38:18;;;;;;;0.50;0.50;;;;;;;-4.50;88.76;102693.81;5051458;28;20110;-68
2021/12/22 05:40:44;;;;;;;0.90;0.90;;;;;;;-4.52;88.88;102698.72;5059097;28;20049;-69
2021/12/22 05:43:09;;;;;;;0.47;0.47;;;;;;;-4.52;88.84;102693.63;5047891;28;20029;-68
2021/12/22 05:45:34;;;;;;;0.60;0.60;;;;;;;-4.55;88.78;102691.59;5038906;28;20025;-68
2021/12/22 05:48:00;;;;;;;0.60;0.60;;;;;;;-4.55;88.79;102688.13;5055423;28;20024;-69
2021/12/22 05:50:25;;;;;;;0.50;0.50;;;;;;;-4.56;88.92;102694.91;5055157;28;20400;-67
2021/12/22 05:52:51;;;;;;;0.60;0.60;;;;;;;-4.57;88.83;102693.06;5038222;28;20037;-68
2021/12/22 05:55:16;;;;;;;0.50;0.50;;;;;;;-4.59;88.83;102691.06;5042048;28;20096;-68
2021/12/22 05:57:42;;;;;;;0.60;0.60;;;;;;;-4.59;88.91;102688.50;5056597;28;20031;-68
2021/12/22 06:00:08;;;;;;;0.60;0.60;;;;;;;-4.59;88.75;102693.63;5043404;28;20036;-68
2021/12/22 06:02:33;;;;;;;0.50;0.50;;;;;;;-4.58;88.96;102687.75;5058103;28;20064;-69
2021/12/22 06:04:58;;;;;;;0.70;0.70;;;;;;;-4.61;88.89;102693.41;5058160;28;20024;-69
2021/12/22 06:07:24;;;;;;;0.57;0.57;;;;;;;-4.63;88.91;102691.41;5057190;28;20041;-68
2021/12/22 06:09:49;;;;;;;0.50;0.50;;;;;;;-4.64;88.55;102694.69;5057784;28;20087;-68
2021/12/22 06:12:14;;;;;;;0.50;0.50;;;;;;;-4.64;88.80;102692.13;5054775;28;20088;-68
2021/12/22 06:14:40;;;;;;;0.70;0.70;;;;;;;-4.65;88.68;102693.81;5050222;28;20017;-67
2021/12/22 06:17:05;;;;;;;0.40;0.40;;;;;;;-4.63;88.80;102683.72;5058782;28;20033;-68
2021/12/22 06:19:31;;;;;;;0.50;0.50;;;;;;;-4.64;88.70;102689.59;5052296;28;20113;-68
2021/12/22 06:21:56;;;;;;;0.50;0.50;;;;;;;-4.64;89.08;102684.47;5038628;28;20044;-68
2021/12/22 06:24:22;;;;;;;0.60;0.60;;;;;;;-4.65;89.09;102680.09;5037113;28;20037;-69
2021/12/22 06:26:47;;;;;;;0.50;0.50;;;;;;;-4.66;88.75;102689.44;5043451;28;20026;-68
2021/12/22 06:29:12;;;;;;;0.70;0.70;;;;;;;-4.66;89.04;102683.38;5037921;28;20127;-68
2021/12/22 06:31:38;;;;;;;0.60;0.60;;;;;;;-4.68;88.91;102688.31;5038432;28;20019;-68
2021/12/22 06:34:03;;;;;;;0.53;0.53;;;;;;;-4.70;88.82;102675.34;5056547;28;20319;-67
2021/12/22 06:36:29;;;;;;;0.60;0.60;;;;;;;-4.69;88.89;102681.38;5058076;28;20100;-68
2021/12/22 06:38:54;;;;;;;0.53;0.53;;;;;;;-4.68;89.30;102680.63;5058145;28;20029;-68
2021/12/22 06:41:20;;;;;;;0.50;0.50;;;;;;;-4.67;88.95;102684.13;5049760;28;20033;-68
2021/12/22 06:43:45;;;;;;;0.50;0.50;;;;;;;-4.69;89.00;102689.97;5052743;28;20059;-68
2021/12/22 06:46:11;;;;;;;0.50;0.50;;;;;;;-4.71;89.04;102688.88;5058304;28;20082;-68
2021/12/22 06:48:36;;;;;;;0.37;0.37;;;;;;;-4.70;88.91;102685.59;5057718;28;20117;-68
2021/12/22 06:51:01;;;;;;;0.60;0.60;;;;;;;-4.68;89.06;102690.84;5056125;28;20039;-68
2021/12/22 06:53:27;;;;;;;0.57;0.57;;;;;;;-4.70;89.00;102692.31;5040215;28;20025;-69
2021/12/22 06:55:52;;;;;;;0.40;0.40;;;;;;;-4.70;88.95;102687.22;5041691;28;20041;-69
2021/12/22 06:58:18;;;;;;;1.17;1.17;;;;;;;-4.66;89.00;102693.59;5038050;28;20036;-68
2021/12/22 07:00:43;;;;;;;0.50;0.50;;;;;;;-4.63;89.35;102681.19;5037917;28;20021;-69
2021/12/22 07:03:08;;;;;;;0.40;0.40;;;;;;;-4.66;89.30;102684.31;5056330;28;20303;-69
2021/12/22 07:05:34;;;;;;;0.50;0.50;;;;;;;-4.67;89.07;102689.22;5056794;28;20022;-68
2021/12/22 07:07:59;;;;;;;2.00;1.00;;;;;;;-4.70;88.84;102682.09;5053663;28;20026;-68
2021/12/22 07:10:25;;;;;;;0.90;0.90;;;;;;;-4.72;88.90;102675.91;5041272;28;20033;-68
2021/12/22 07:12:50;;;;;;;0.47;0.47;;;;;;;-4.73;88.72;102677.53;5037149;28;20040;-69
2021/12/22 07:15:17;;;;;;;0.57;0.57;;;;;;;-4.74;88.84;102677.38;5036979;28;20083;-67
2021/12/22 07:17:45;;;;;;;0.50;0.50;;;;;;;-4.76;89.06;102673.69;5038934;28;20047;-68
2021/12/22 07:20:11;;;;;;;0.60;0.60;;;;;;;-4.73;88.81;102676.63;5037445;28;20104;-68
2021/12/22 07:22:36;;;;;;;0.55;0.55;;;;;;;-4.72;89.07;102675.91;5021250;28;20033;-69
2021/12/22 07:25:03;;;;;;;0.53;0.53;;;;;;;-4.73;88.89;102672.41;5055574;28;20028;-68
2021/12/22 07:27:28;;;;;;;0.70;0.70;;;;;;;-4.71;88.96;102670.06;5056947;28;20068;-68
2021/12/22 07:29:53;;;;;;;0.50;0.50;;;;;;;-4.70;88.75;102664.19;5037713;28;20371;-69
2021/12/22 07:32:19;;;;;;;0.90;0.90;;;;;;;-4.70;89.00;102669.31;5037472;28;20455;-68
2021/12/22 07:34:51;;;;;;;0.60;0.60;;;;;;;-4.72;88.84;102660.56;5037087;28;20436;-68
2021/12/22 07:37:31;;;;;;;0.50;0.50;;;;;;;-4.73;89.03;102657.06;5044569;28;20025;-68
2021/12/22 07:39:56;;;;;;;0.50;0.50;;;;;;;-4.72;88.73;102661.44;5056670;28;20024;-68
2021/12/22 07:42:22;;;;;;;0.67;0.67;;;;;;;-4.73;88.85;102662.19;5051711;28;20084;-68
2021/12/22 07:44:47;;;;;;;0.50;0.50;;;;;;;-4.71;89.01;102659.81;5035706;28;20048;-68
2021/12/22 07:47:12;;;;;;;0.50;0.50;;;;;;;-4.74;89.09;102662.91;5036507;28;20272;-69
2021/12/22 07:49:38;;;;;;;0.50;0.50;;;;;;;-4.72;88.39;102665.66;5036691;28;20040;-69
2021/12/22 07:52:04;;;;;;;0.57;0.57;;;;;;;-4.72;88.74;102665.66;5038004;28;20063;-69
2021/12/22 07:54:29;;;;;;;0.47;0.47;;;;;;;-4.70;89.25;102670.25;5035609;28;20036;-69
2021/12/22 07:56:54;;;;;;;0.67;0.67;;;;;;;-4.70;89.04;102666.75;5047965;28;20451;-69
2021/12/22 07:59:20;;;;;;;0.67;0.67;;;;;;;-4.69;88.78;102673.69;5037716;28;20418;-69
2021/12/22 08:01:45;;;;;;;0.50;0.50;;;;;;;-4.69;89.21;102679.75;5036545;28;20063;-69
2021/12/22 08:04:11;;;;;;;1.23;1.23;;;;;;;-4.67;89.03;102686.69;5041332;28;20103;-69
2021/12/22 08:06:36;;;;;;;0.40;0.40;;;;;;;-4.67;88.97;102685.00;5043801;28;20025;-69
2021/12/22 08:09:03;;;;;;;0.40;0.40;;;;;;;-4.66;89.15;102680.81;5046118;28;20028;-69
2021/12/22 08:11:28;;;;;;;0.60;0.60;;;;;;;-4.63;88.75;102678.63;5046160;28;20021;-69
2021/12/22 08:13:54;;;;;;;0.50;0.50;;;;;;;-4.61;88.90;102684.84;5041361;28;20669;-68
2021/12/22 08:16:19;;;;;;;0.87;0.87;;;;;;;-4.61;88.93;102678.06;5044805;28;20040;-69
2021/12/22 08:18:44;;;;;;;0.67;0.67;;;;;;;-4.60;88.46;102672.22;5044069;28;20069;-69
2021/12/22 08:21:09;;;;;;;0.60;0.60;;;;;;;-4.58;88.86;102686.13;5046427;28;20025;-68
2021/12/22 08:23:35;;;;;;;0.57;0.57;;;;;;;-4.56;88.63;102676.06;5044461;28;20033;-69
2021/12/22 08:26:00;;;;;;;1.93;1.83;;;;;;;-4.52;88.88;102672.22;5041974;28;20270;-67
2021/12/22 08:28:26;;;;;;;0.70;0.70;;;;;;;-4.49;88.66;102670.06;5044284;28;20017;-68
2021/12/22 08:30:51;;;;;;;0.50;0.50;;;;;;;-4.47;88.68;102669.50;5042829;28;20028;-68
2021/12/22 08:33:26;;;;;;;0.50;0.50;;;;;;;-4.42;88.50;102672.63;5044029;28;20415;-69
2021/12/22 08:38:50;;;;;;;0.43;0.43;;;;;;;-4.32;88.88;102670.41;5042112;28;20334;-68
2021/12/22 08:41:29;;;;;;;0.50;0.50;;;;;;;-4.23;88.81;102667.09;5029026;28;20025;-68
2021/12/22 08:43:58;;;;;;;0.40;0.40;;;;;;;-4.18;88.73;102656.66;5045186;28;20314;-68
2021/12/22 08:46:24;;;;;;;0.50;0.50;;;;;;;-4.12;88.81;102658.13;5040989;28;20283;-68
2021/12/22 08:48:50;;;;;;;0.60;0.60;;;;;;;-4.08;88.66;102656.09;5054989;28;20291;-69
2021/12/22 08:51:15;;;;;;;1.37;1.37;;;;;;;-4.01;88.75;102652.59;5043749;28;20290;-69
2021/12/22 08:53:41;;;;;;;0.50;0.50;;;;;;;-3.94;88.76;102654.25;5058383;28;20064;-69
2021/12/22 08:56:06;;;;;;;0.70;0.70;;;;;;;-3.85;88.80;102657.88;5041457;28;20079;-68
2021/12/22 08:58:32;;;;;;;0.53;0.53;;;;;;;-3.78;88.44;102652.72;5054667;28;20482;-69
2021/12/22 09:00:57;;;;;;;0.50;0.50;;;;;;;-3.70;88.63;102653.59;5059377;28;20021;-69
2021/12/22 09:03:22;;;;;;;0.50;0.50;;;;;;;-3.64;88.22;102654.28;5058876;28;20021;-68
2021/12/22 09:05:48;;;;;;;0.50;0.50;;;;;;;-3.59;88.08;102652.25;5059948;28;20028;-68
2021/12/22 09:08:13;;;;;;;0.50;0.50;;;;;;;-3.52;87.72;102652.22;5060006;28;20064;-69
2021/12/22 09:10:39;;;;;;;0.40;0.40;;;;;;;-3.39;87.71;102653.59;5051848;28;20022;-69
2021/12/22 09:13:04;;;;;;;0.53;0.53;;;;;;;-3.35;87.77;102661.81;5040241;28;20032;-69
2021/12/22 09:15:30;;;;;;;0.60;0.60;;;;;;;-3.29;87.42;102670.94;5039019;28;20091;-68
2021/12/22 09:17:55;;;;;;;0.80;0.80;;;;;;;-3.27;87.24;102670.41;5039959;28;20108;-68
2021/12/22 09:20:21;;;;;;;0.87;0.87;;;;;;;-3.22;86.95;102665.78;5039878;28;20105;-68
2021/12/22 09:22:46;;;;;;;0.60;0.60;;;;;;;-3.18;86.68;102655.13;5039548;28;20032;-69
2021/12/22 09:25:12;;;;;;;0.57;0.57;;;;;;;-3.17;87.00;102657.88;5055590;28;20053;-69
2021/12/22 09:27:39;;;;;;;0.50;0.50;;;;;;;-3.14;86.93;102653.81;5058803;28;20029;-69
2021/12/22 09:30:05;;;;;;;0.43;0.43;;;;;;;-3.13;87.08;102646.31;5058726;28;20037;-69
2021/12/22 09:32:30;;;;;;;0.50;0.50;;;;;;;-3.12;86.96;102649.81;5042002;28;20709;-68
2021/12/22 09:34:56;;;;;;;0.50;0.50;;;;;;;-3.13;86.95;102651.44;5051996;28;20280;-69
2021/12/22 09:37:21;;;;;;;0.53;0.53;;;;;;;-3.12;87.05;102650.69;5048304;28;20067;-69
2021/12/22 09:39:46;;;;;;;0.60;0.60;;;;;;;-3.10;86.99;102650.88;5047525;28;20021;-68
2021/12/22 09:42:12;;;;;;;0.50;0.50;;;;;;;-3.07;87.05;102654.72;5049213;28;20346;-69
2021/12/22 09:44:44;;;;;;;0.50;0.50;;;;;;;-3.01;87.21;102651.91;5046946;28;20079;-68
2021/12/22 09:47:17;;;;;;;0.40;0.40;;;;;;;-2.92;87.30;102652.94;5046349;28;20033;-69
2021/12/22 09:52:17;;;;;;;0.40;0.40;;;;;;;-2.62;86.93;102651.97;5048675;28;20339;-69
2021/12/22 09:54:42;;;;;;;0.50;0.50;;;;;;;-2.46;86.26;102652.75;5045941;28;20021;-68
2021/12/22 09:57:09;;;;;;;0.40;0.40;;;;;;;-2.32;85.56;102646.59;5048635;28;20295;-67
2021/12/22 09:59:35;;;;;;;0.40;0.40;;;;;;;-2.18;85.59;102642.94;5046380;28;20375;-68
2021/12/22 10:02:00;;;;;;;0.60;0.60;;;;;;;-2.07;85.08;102639.88;5047459;28;20519;-68
2021/12/22 10:04:27;;;;;;;0.60;0.60;;;;;;;-1.98;84.81;102645.13;5047517;28;20351;-67
2021/12/22 10:06:53;;;;;;;0.80;0.80;;;;;;;-1.91;84.53;102645.03;5048496;28;20376;-68
2021/12/22 10:09:23;;;;;;;0.50;0.50;;;;;;;-1.82;84.34;102640.88;5046837;28;20367;-68
2021/12/22 10:11:49;;;;;;;0.40;0.40;;;;;;;-1.76;84.00;102643.19;5048371;28;20291;-68
2021/12/22 10:14:22;;;;;;;0.50;0.50;;;;;;;-1.70;83.85;102638.72;5033572;28;20307;-68
2021/12/22 10:16:49;;;;;;;0.60;0.60;;;;;;;-1.53;84.41;102647.31;5048694;28;20014;-69
2021/12/22 10:19:14;;;;;;;0.40;0.40;;;;;;;-1.40;83.32;102639.25;5051031;28;20295;-68
2021/12/22 10:22:02;;;;;;;1.80;1.33;;;;;;;-1.22;82.93;102636.78;5041377;28;20298;-69
2021/12/22 10:24:37;;;;;;;0.40;0.40;;;;;;;-1.03;82.01;102632.84;5049952;28;20036;-68
2021/12/22 10:27:09;;;;;;;0.25;0.25;;;;;;;-0.93;81.64;102631.22;5057670;28;20333;-69
2021/12/22 10:29:35;;;;;;;0.20;0.20;;;;;;;-0.84;81.37;102637.31;5057422;28;20060;-69
2021/12/22 10:32:07;;;;;;;0.40;0.40;;;;;;;-0.78;81.09;102637.03;5057973;28;20271;-69
2021/12/22 10:34:32;;;;;;;0.40;0.40;;;;;;;-0.70;81.01;102637.06;5057541;28;20104;-70
2021/12/22 10:36:58;;;;;;;0.50;0.50;;;;;;;-0.61;80.96;102633.63;5057992;28;20392;-70
2021/12/22 10:39:29;;;;;;;0.40;0.40;;;;;;;-0.54;80.58;102636.06;5056329;28;20025;-71
2021/12/22 10:42:10;;;;;;;1.07;1.07;;;;;;;-0.52;80.34;102638.78;5058343;28;20032;-70
2021/12/22 10:44:44;;;;;;;0.47;0.47;;;;;;;-0.47;80.26;102635.94;5056242;28;20338;-70
2021/12/22 10:47:19;;;;;;;0.40;0.40;;;;;;;-0.42;80.52;102628.69;5058086;28;20329;-70
2021/12/22 10:50:01;;;;;;;1.07;0.80;;;;;;;-0.38;80.24;102629.91;5057409;28;20842;-69
2021/12/22 10:52:27;;;;;;;0.33;0.33;;;;;;;-0.36;80.22;102626.75;5051910;28;20284;-69
2021/12/22 10:55:09;;;;;;;0.30;0.30;;;;;;;-0.30;80.31;102618.72;5051211;28;20293;-70
2021/12/22 10:57:38;;;;;;;0.40;0.40;;;;;;;-0.23;80.30;102617.66;5057496;28;20350;-70
2021/12/22 11:00:25;;;;;;;0.47;0.47;;;;;;;-0.08;80.01;102611.47;5056904;28;20291;-70
2021/12/22 11:03:05;;;;;;;0.30;0.30;;;;;;;0.09;79.29;102610.59;5056799;28;20558;-69
2021/12/22 11:05:41;;;;;;;0.40;0.40;;;;;;;0.15;78.57;102612.88;5054460;28;20032;-69
2021/12/22 11:08:20;;;;;;;0.32;0.32;;;;;;;0.12;78.88;102604.81;5063711;28;20285;-70
2021/12/22 11:10:45;;;;;;;0.63;0.63;;;;;;;0.12;79.06;102602.22;5043646;28;20083;-70
2021/12/22 11:13:11;;;;;;;0.37;0.37;;;;;;;0.19;78.45;102589.22;5052946;28;20307;-71
2021/12/22 11:15:41;;;;;;;0.60;0.60;;;;;;;0.43;76.96;102579.47;5065762;28;20166;-71
2021/12/22 11:18:10;;;;;;;0.60;0.60;;;;;;;0.49;77.01;102584.34;5039627;28;20141;-73
2021/12/22 11:20:35;;;;;;;0.40;0.40;;;;;;;0.38;77.72;102583.31;5047298;28;20271;-72
2021/12/22 11:23:04;;;;;;;0.33;0.33;;;;;;;0.30;78.04;102571.34;5057139;28;20654;-71
2021/12/22 11:25:29;;;;;;;0.40;0.40;;;;;;;0.18;78.52;102569.34;5056395;28;20095;-70
2021/12/22 11:27:57;;;;;;;0.33;0.33;;;;;;;0.15;78.05;102569.06;5070758;28;20264;-71
2021/12/22 11:30:26;;;;;;;0.40;0.40;;;;;;;0.13;77.96;102566.31;5055423;28;20017;-71
2021/12/22 11:32:52;;;;;;;0.40;0.40;;;;;;;0.06;78.46;102569.06;5050033;28;20279;-72
2021/12/22 11:35:18;;;;;;;0.30;0.30;;;;;;;0.00;79.31;102563.31;5056239;28;20287;-72
2021/12/22 11:37:44;;;;;;;0.40;0.40;;;;;;;-0.02;79.39;102558.00;5056573;28;20332;-72
2021/12/22 11:40:11;;;;;;;0.40;0.40;;;;;;;-0.02;79.27;102554.50;5049037;28;20028;-72